Time;durP1;ratioP1;P1;durP2;ratioP2;P2;SDS_P1;SDS_P2;PMS_P1;PMS_P2;Temp;Humidity;BMP_temperature;BMP_pressure;BME280_temperature;BME280_humidity;BME280_pressure;Samples;Min_cycle;Max_cycle;Signal;HPM_P1;HPM_P2
2022/11/27 00:00:36;;;;;;;;;;;;;;;14.80;63.68;99679.28;2082178;28;20045;-49
2022/11/27 00:01:39;;;;;;;0.47;0.47;;;;;;;14.87;63.55;99680.31;2082836;28;19925;-45
2022/11/27 00:02:40;;;;;;;0.40;0.40;;;;;;;14.89;63.46;99680.16;2079707;28;20041;-49
2022/11/27 00:03:42;;;;;;;;;;;;;;;14.82;63.53;99685.31;2084455;28;20041;-46
2022/11/27 00:04:43;;;;;;;0.80;0.70;;;;;;;14.86;63.50;99693.84;2081540;28;19921;-46
2022/11/27 00:05:51;;;;;;;;;;;;;;;14.77;63.58;99695.59;2083019;28;20048;-47
2022/11/27 00:06:53;;;;;;;0.50;0.43;;;;;;;14.83;63.50;99697.66;2081334;28;20047;-48
2022/11/27 00:07:53;;;;;;;0.68;0.63;;;;;;;14.88;63.47;99695.38;2079167;28;20041;-47
2022/11/27 00:08:56;;;;;;;;;;;;;;;14.78;63.62;99694.59;2074012;28;20048;-45
2022/11/27 00:09:57;;;;;;;0.57;0.57;;;;;;;14.83;63.72;99694.16;2080798;28;19925;-47
2022/11/27 00:11:05;;;;;;;;;;;;;;;14.76;63.60;99691.22;2080002;28;20509;-47
2022/11/27 00:12:06;;;;;;;0.82;0.70;;;;;;;14.81;63.64;99698.78;2079260;28;19960;-48
2022/11/27 00:13:09;;;;;;;;;;;;;;;14.78;63.72;99699.09;2082508;28;20144;-49
2022/11/27 00:14:11;;;;;;;1.05;0.65;;;;;;;14.83;63.61;99704.84;2081764;28;19936;-47
2022/11/27 00:15:13;;;;;;;0.75;0.50;;;;;;;14.89;63.35;99707.72;2079945;28;20041;-48
2022/11/27 00:16:14;;;;;;;0.93;0.50;;;;;;;14.92;63.32;99699.41;2082136;28;20045;-46
2022/11/27 00:17:16;;;;;;;0.80;0.80;;;;;;;14.94;63.32;99701.94;2081227;28;22425;-47
2022/11/27 00:18:17;;;;;;;0.65;0.45;;;;;;;14.94;63.05;99704.59;2082073;28;20040;-45
2022/11/27 00:19:19;;;;;;;;;;;;;;;14.81;63.57;99707.66;2081928;28;20068;-48
2022/11/27 00:20:19;;;;;;;0.60;0.60;;;;;;;14.85;63.39;99705.50;2082319;28;19929;-46
2022/11/27 00:21:23;;;;;;;;;;;;;;;14.77;63.57;99702.78;2082468;28;20051;-48
2022/11/27 00:22:25;;;;;;;0.47;0.40;;;;;;;14.81;63.65;99706.81;2076800;28;19921;-46
2022/11/27 00:23:26;;;;;;;0.77;0.77;;;;;;;14.86;63.41;99700.00;2076293;28;20088;-50
2022/11/27 00:24:27;;;;;;;;;;;;;;;14.77;63.72;99700.09;2078802;28;20045;-46
2022/11/27 00:25:28;;;;;;;0.57;0.57;;;;;;;14.81;63.47;99704.13;2081098;28;19979;-47
2022/11/27 00:26:30;;;;;;;;;;;;;;;14.75;63.71;99713.59;2081158;28;20111;-48
2022/11/27 00:27:31;;;;;;;0.43;0.43;;;;;;;14.79;63.60;99709.63;2067092;28;19955;-47
2022/11/27 00:28:35;;;;;;;;;;;;;;;14.72;63.71;99712.06;2077311;28;20091;-46
2022/11/27 00:29:35;;;;;;;0.90;0.70;;;;;;;14.80;63.67;99710.47;2080530;28;19920;-48
2022/11/27 00:30:37;;;;;;;;;;;;;;;14.73;63.77;99707.56;2081842;28;20072;-48
2022/11/27 00:31:38;;;;;;;1.05;0.70;;;;;;;14.78;63.60;99702.59;2081393;28;19925;-46
2022/11/27 00:32:39;;;;;;;;;;;;;;;14.73;63.68;99707.56;2081906;28;20040;-46
2022/11/27 00:33:40;;;;;;;0.50;0.47;;;;;;;14.80;63.75;99708.66;2080868;28;19936;-46
2022/11/27 00:34:42;;;;;;;;;;;;;;;14.73;63.74;99704.91;2083437;28;20510;-45
2022/11/27 00:35:43;;;;;;;0.73;0.73;;;;;;;14.77;63.75;99706.28;2081227;28;20403;-47
2022/11/27 00:36:45;;;;;;;0.50;0.50;;;;;;;14.82;63.53;99701.31;2082564;28;20077;-47
2022/11/27 00:37:46;;;;;;;0.57;0.50;;;;;;;14.86;63.42;99697.34;2081868;28;20061;-49
2022/11/27 00:38:47;;;;;;;;;;;;;;;14.75;63.50;99702.91;2075437;28;20095;-46
2022/11/27 00:39:48;;;;;;;0.43;0.43;;;;;;;14.79;63.67;99701.59;2075520;28;19940;-49
2022/11/27 00:40:50;;;;;;;;;;;;;;;14.71;63.70;99701.56;2080049;28;20396;-45
2022/11/27 00:41:50;;;;;;;0.57;0.57;;;;;;;14.76;63.70;99701.91;2080326;28;19932;-47
2022/11/27 00:42:52;;;;;;;;;;;;;;;14.70;63.75;99697.19;2080892;28;20123;-48
2022/11/27 00:43:55;;;;;;;0.50;0.50;;;;;;;14.78;63.71;99704.44;2077110;28;20043;-47
2022/11/27 00:44:56;;;;;;;0.38;0.38;;;;;;;14.82;63.53;99705.81;2074318;28;20099;-48
2022/11/27 00:45:57;;;;;;;1.10;0.70;;;;;;;14.83;63.41;99710.19;2077817;28;20091;-47
2022/11/27 00:46:59;;;;;;;;;;;;;;;14.73;63.76;99704.91;2082095;28;20063;-49
2022/11/27 00:48:00;;;;;;;1.20;1.10;;;;;;;14.80;63.43;99708.66;2081652;28;20295;-47
2022/11/27 00:49:03;;;;;;;;;;;;;;;14.69;63.85;99708.88;2077264;28;20053;-52
2022/11/27 00:50:06;;;;;;;0.60;0.60;;;;;;;14.76;63.60;99704.59;2074407;28;19927;-51
2022/11/27 00:51:09;;;;;;;0.38;0.38;;;;;;;14.81;63.47;99696.13;2081437;28;20061;-50
2022/11/27 00:52:11;;;;;;;0.75;0.55;;;;;;;14.83;63.23;99703.00;2082145;28;20056;-49
2022/11/27 00:53:12;;;;;;;0.45;0.45;;;;;;;14.84;63.42;99702.00;2081878;28;20075;-51
2022/11/27 00:54:13;;;;;;;;;;;;;;;14.74;63.53;99702.09;2082452;28;20734;-50
2022/11/27 00:55:14;;;;;;;0.70;0.38;;;;;;;14.78;63.52;99699.94;2083344;28;19920;-51
2022/11/27 00:56:17;;;;;;;;;;;;;;;14.72;63.58;99698.72;2079381;28;20398;-52
2022/11/27 00:57:18;;;;;;;1.17;0.70;;;;;;;14.78;63.56;99694.59;2072030;28;20126;-55
2022/11/27 00:58:19;;;;;;;;;;;;;;;14.68;63.81;99694.69;2075327;28;20049;-48
2022/11/27 00:59:21;;;;;;;0.52;0.52;;;;;;;14.76;63.46;99696.56;2080223;28;20396;-50
2022/11/27 01:00:23;;;;;;;0.57;0.57;;;;;;;14.81;63.44;99696.97;2081084;28;20113;-48
2022/11/27 01:01:27;;;;;;;0.88;0.73;;;;;;;14.84;63.39;99701.16;2082349;28;20049;-46
2022/11/27 01:02:29;;;;;;;1.75;0.82;;;;;;;14.84;63.35;99699.31;2082281;28;20068;-51
2022/11/27 01:03:31;;;;;;;0.90;0.60;;;;;;;14.85;63.31;99710.84;2077059;28;20053;-53
2022/11/27 01:04:33;;;;;;;0.50;0.45;;;;;;;14.87;63.18;99700.84;2078936;28;20571;-46
2022/11/27 01:05:35;;;;;;;0.40;0.40;;;;;;;14.85;63.08;99705.50;2075496;28;20052;-49
2022/11/27 01:06:37;;;;;;;0.55;0.55;;;;;;;14.83;63.35;99697.66;2072623;28;21529;-52
2022/11/27 01:07:38;;;;;;;0.60;0.60;;;;;;;14.88;63.13;99705.22;2076166;28;20388;-52
2022/11/27 01:08:40;;;;;;;;;;;;;;;14.76;63.40;99701.91;2076021;28;20056;-50
2022/11/27 01:09:41;;;;;;;0.80;0.60;;;;;;;14.77;63.40;99703.63;2082079;28;20592;-50
2022/11/27 01:10:47;;;;;;;;;;;;;;;14.69;63.76;99695.53;2074001;28;20147;-49
2022/11/27 01:11:48;;;;;;;0.40;0.40;;;;;;;14.73;63.48;99700.38;2078468;28;20496;-52
2022/11/27 01:12:50;;;;;;;;;;;;;;;14.65;63.87;99696.81;2076482;28;20053;-44
2022/11/27 01:13:51;;;;;;;0.80;0.68;;;;;;;14.71;63.86;99699.72;2074483;28;21544;-49
2022/11/27 01:14:55;;;;;;;0.73;0.65;;;;;;;14.79;63.42;99698.09;2082461;28;20047;-52
2022/11/27 01:15:59;;;;;;;0.85;0.60;;;;;;;14.80;63.49;99697.97;2082998;28;20068;-51
2022/11/27 01:17:01;;;;;;;0.90;0.90;;;;;;;14.82;63.16;99700.47;2079318;28;20115;-52
2022/11/27 01:18:02;;;;;;;0.60;0.47;;;;;;;14.85;63.10;99702.81;2079223;28;20068;-50
2022/11/27 01:19:04;;;;;;;;;;;;;;;14.71;63.57;99701.56;2083098;28;20137;-51
2022/11/27 01:20:06;;;;;;;0.82;0.35;;;;;;;14.76;63.50;99704.59;2084529;28;20011;-50
2022/11/27 01:21:08;;;;;;;0.40;0.40;;;;;;;14.80;63.29;99705.13;2083105;28;21124;-50
2022/11/27 01:22:09;;;;;;;0.88;0.60;;;;;;;14.82;63.14;99708.47;2082161;28;20048;-50
2022/11/27 01:23:11;;;;;;;;;;;;;;;14.69;63.68;99712.38;2078276;28;20053;-52
2022/11/27 01:24:13;;;;;;;0.40;0.40;;;;;;;14.75;63.53;99705.59;2077654;28;20009;-52
2022/11/27 01:25:15;;;;;;;1.98;0.40;;;;;;;14.79;63.50;99708.78;2075006;28;20057;-52
2022/11/27 01:26:17;;;;;;;0.80;0.57;;;;;;;14.81;63.49;99704.13;2076934;28;20128;-47
2022/11/27 01:27:19;;;;;;;0.60;0.60;;;;;;;14.83;63.25;99708.34;2082118;28;20048;-47
2022/11/27 01:28:20;;;;;;;0.68;0.57;;;;;;;14.82;63.29;99701.31;2083002;28;20044;-48
2022/11/27 01:29:22;;;;;;;0.85;0.85;;;;;;;14.84;63.13;99703.81;2078329;28;20099;-53
2022/11/27 01:30:24;;;;;;;0.43;0.43;;;;;;;14.84;63.08;99704.66;2083985;28;20524;-49
2022/11/27 01:31:31;;;;;;;0.60;0.47;;;;;;;14.84;63.11;99699.31;2082766;28;20094;-48
2022/11/27 01:32:32;;;;;;;0.57;0.52;;;;;;;14.85;63.12;99700.16;2082557;28;20053;-53
2022/11/27 01:33:33;;;;;;;;;;;;;;;14.72;63.50;99709.41;2074765;28;20044;-52
2022/11/27 01:34:35;;;;;;;;;;;;;;;14.61;63.83;99706.94;2083905;28;19921;-49
2022/11/27 01:35:36;;;;;;;0.90;0.50;;;;;;;14.69;63.38;99706.19;2079976;28;19928;-52
2022/11/27 01:36:37;;;;;;;;;;;;;;;14.62;63.84;99710.47;2084189;28;20045;-48
2022/11/27 01:37:38;;;;;;;;;;;;;;;14.56;64.02;99703.06;2082008;28;20147;-50
2022/11/27 01:38:40;;;;;;;0.53;0.53;;;;;;;14.65;63.88;99707.47;2083740;28;19933;-52
2022/11/27 01:39:41;;;;;;;1.35;1.08;;;;;;;14.70;63.67;99711.38;2079582;28;20048;-45
2022/11/27 01:40:43;;;;;;;;;;;;;;;14.64;63.60;99706.66;2074751;28;20048;-51
2022/11/27 01:41:44;;;;;;;;;;;;;;;14.56;63.96;99706.56;2081714;28;19986;-52
2022/11/27 01:42:46;;;;;;;0.50;0.50;;;;;;;14.65;63.95;99715.50;2080854;28;19932;-54
2022/11/27 01:43:49;;;;;;;0.63;0.63;;;;;;;14.73;63.46;99710.22;2083519;28;20056;-50
2022/11/27 01:44:54;;;;;;;0.80;0.50;;;;;;;14.75;63.57;99705.59;2082151;28;20037;-52
2022/11/27 01:45:56;;;;;;;1.00;0.70;;;;;;;14.77;63.32;99702.78;2083785;28;20048;-47
2022/11/27 01:47:03;;;;;;;1.38;0.55;;;;;;;14.79;63.12;99703.44;2083286;28;20052;-51
2022/11/27 01:48:04;;;;;;;0.65;0.60;;;;;;;14.79;63.31;99700.78;2083288;28;20045;-46
2022/11/27 01:49:17;;;;;;;;;;;;;;;14.68;63.42;99699.16;2080052;28;20060;-52
2022/11/27 01:50:22;;;;;;;1.48;0.65;;;;;;;14.70;63.50;99695.34;2082744;28;19943;-51
2022/11/27 01:51:24;;;;;;;0.50;0.50;;;;;;;14.72;63.30;99701.38;2082581;28;20052;-48
2022/11/27 01:52:28;;;;;;;1.65;0.77;;;;;;;14.75;63.61;99694.91;2077367;28;20052;-51
2022/11/27 01:53:33;;;;;;;1.95;0.90;;;;;;;14.76;63.21;99696.56;2082886;28;20072;-45
2022/11/27 01:54:50;;;;;;;0.80;0.80;;;;;;;14.74;63.34;99698.56;2080538;28;20049;-51
2022/11/27 01:55:57;;;;;;;0.70;0.63;;;;;;;14.74;63.35;99702.09;2079761;28;20057;-52
2022/11/27 01:57:06;;;;;;;1.08;0.60;;;;;;;14.74;63.39;99698.56;2079338;28;20136;-53
2022/11/27 01:58:10;;;;;;;0.57;0.57;;;;;;;14.78;63.30;99704.44;2073873;28;20056;-51
2022/11/27 01:59:12;;;;;;;1.20;0.70;;;;;;;14.78;63.24;99704.44;2078420;28;20174;-50
2022/11/27 02:00:14;;;;;;;0.70;0.52;;;;;;;14.78;62.95;99694.59;2078111;28;20052;-48
2022/11/27 02:01:18;;;;;;;0.40;0.40;;;;;;;14.78;63.36;99699.94;2075849;28;20060;-53
2022/11/27 02:02:19;;;;;;;1.25;0.70;;;;;;;14.77;63.13;99692.94;2073112;28;20501;-47
2022/11/27 02:03:20;;;;;;;;;;;;;;;14.65;63.53;99696.81;2083757;28;20049;-51
2022/11/27 02:04:21;;;;;;;;;;;;;;;14.57;63.73;99691.38;2080877;28;20526;-47
2022/11/27 02:05:25;;;;;;;0.67;0.67;;;;;;;14.63;63.68;99693.47;2077825;28;19920;-53
2022/11/27 02:06:26;;;;;;;0.55;0.50;;;;;;;14.67;63.25;99694.81;2078664;28;20052;-51
2022/11/27 02:07:27;;;;;;;;;;;;;;;14.60;63.74;99691.94;2077017;28;20044;-49
2022/11/27 02:08:28;;;;;;;0.60;0.60;;;;;;;14.65;63.48;99689.63;2081899;28;20276;-51
2022/11/27 02:09:30;;;;;;;;;;;;;;;14.59;63.71;99694.75;2082198;28;20057;-46
2022/11/27 02:10:44;;;;;;;0.98;0.60;;;;;;;14.65;63.54;99688.78;2078292;28;19925;-53
2022/11/27 02:11:53;;;;;;;0.82;0.52;;;;;;;14.68;63.36;99693.81;2073014;28;22043;-46
2022/11/27 02:12:59;;;;;;;0.70;0.50;;;;;;;14.70;63.46;99692.69;2080873;28;20524;-52
2022/11/27 02:14:07;;;;;;;0.40;0.40;;;;;;;14.74;63.23;99682.56;2082317;28;20061;-48
2022/11/27 02:15:14;;;;;;;0.47;0.47;;;;;;;14.74;63.21;99687.91;2082795;28;20059;-48
2022/11/27 02:16:26;;;;;;;0.47;0.47;;;;;;;14.73;63.10;99684.34;2073574;28;20048;-48
2022/11/27 02:17:35;;;;;;;0.80;0.63;;;;;;;14.73;63.33;99680.84;2073303;28;20048;-53
2022/11/27 02:18:42;;;;;;;0.40;0.40;;;;;;;14.72;63.28;99676.53;2082467;28;20048;-49
2022/11/27 02:20:02;;;;;;;0.50;0.50;;;;;;;14.71;63.28;99674.84;2082381;28;20066;-49
2022/11/27 02:21:10;;;;;;;0.50;0.50;;;;;;;14.72;63.29;99677.34;2082220;28;20049;-47
2022/11/27 02:22:24;;;;;;;0.88;0.55;;;;;;;14.72;63.33;99674.69;2082789;28;20061;-52
2022/11/27 02:24:16;;;;;;;0.50;0.40;;;;;;;14.67;63.51;99681.47;2082318;28;20052;-52
2022/11/27 02:25:29;;;;;;;0.77;0.63;;;;;;;14.65;63.41;99676.28;2075030;28;22070;-53
2022/11/27 02:27:09;;;;;;;1.75;0.68;;;;;;;14.63;63.59;99669.44;2079500;28;20060;-48
2022/11/27 02:28:36;;;;;;;1.05;0.60;;;;;;;14.63;63.47;99680.13;2067546;28;20056;-50
2022/11/27 02:29:39;;;;;;;0.30;0.30;;;;;;;14.65;63.57;99672.78;2082958;28;20427;-48
2022/11/27 02:30:46;;;;;;;0.68;0.60;;;;;;;14.68;63.42;99667.97;2082883;28;20734;-46
2022/11/27 02:31:55;;;;;;;1.23;0.70;;;;;;;14.71;63.11;99666.84;2081866;28;20881;-51
2022/11/27 02:32:59;;;;;;;0.50;0.50;;;;;;;14.70;63.13;99673.16;2083621;28;20057;-49
2022/11/27 02:34:08;;;;;;;0.95;0.90;;;;;;;14.70;63.29;99667.81;2081767;28;20060;-46
2022/11/27 02:35:16;;;;;;;0.88;0.88;;;;;;;14.72;63.29;99663.16;2083040;28;20049;-54
2022/11/27 02:36:22;;;;;;;0.60;0.60;;;;;;;14.71;63.27;99666.84;2082548;28;20052;-47
2022/11/27 02:37:31;;;;;;;0.82;0.55;;;;;;;14.71;63.28;99659.66;2082328;28;20163;-46
2022/11/27 02:38:37;;;;;;;1.63;0.70;;;;;;;14.70;63.37;99660.63;2078629;28;20049;-47
2022/11/27 02:39:46;;;;;;;0.65;0.57;;;;;;;14.72;63.09;99657.81;2074742;28;20049;-47
2022/11/27 02:40:53;;;;;;;0.75;0.43;;;;;;;14.70;63.41;99660.63;2080597;28;20041;-50
2022/11/27 02:42:00;;;;;;;0.50;0.50;;;;;;;14.71;63.23;99661.50;2070650;28;20049;-48
2022/11/27 02:43:07;;;;;;;0.95;0.80;;;;;;;14.72;63.04;99665.84;2075934;28;20150;-46
2022/11/27 02:44:10;;;;;;;0.50;0.50;;;;;;;14.71;63.12;99656.16;2080749;28;20053;-46
2022/11/27 02:45:16;;;;;;;0.70;0.70;;;;;;;14.72;63.04;99658.66;2082617;28;20045;-48
2022/11/27 02:46:19;;;;;;;0.68;0.68;;;;;;;14.71;63.13;99662.34;2081515;28;20540;-46
2022/11/27 02:47:21;;;;;;;0.90;0.50;;;;;;;14.70;63.18;99663.31;2080673;28;20040;-46
2022/11/27 02:48:29;;;;;;;0.73;0.55;;;;;;;14.71;62.98;99662.34;2074946;28;20056;-47
2022/11/27 02:49:31;;;;;;;1.45;0.50;;;;;;;14.71;63.05;99661.50;2074953;28;20055;-46
2022/11/27 02:50:35;;;;;;;0.73;0.57;;;;;;;14.72;63.00;99663.16;2076931;28;20057;-47
2022/11/27 02:51:42;;;;;;;0.68;0.63;;;;;;;14.71;63.17;99658.84;2082281;28;20589;-47
2022/11/27 02:52:44;;;;;;;0.73;0.57;;;;;;;14.70;63.13;99659.81;2082057;28;20885;-48
2022/11/27 02:53:51;;;;;;;0.47;0.47;;;;;;;14.69;63.01;99661.66;2079565;28;20061;-47
2022/11/27 02:54:56;;;;;;;0.88;0.50;;;;;;;14.71;63.12;99659.66;2075338;28;20049;-46
2022/11/27 02:56:00;;;;;;;0.40;0.30;;;;;;;14.73;63.02;99654.16;2081974;28;20064;-50
2022/11/27 02:57:03;;;;;;;0.45;0.45;;;;;;;14.70;63.25;99660.63;2081632;28;20543;-48
2022/11/27 02:58:12;;;;;;;0.63;0.43;;;;;;;14.70;63.07;99654.47;2080836;28;20059;-46
2022/11/27 02:59:15;;;;;;;1.85;0.60;;;;;;;14.69;63.20;99653.63;2083188;28;20054;-46
2022/11/27 03:00:19;;;;;;;0.85;0.57;;;;;;;14.70;63.15;99651.78;2082143;28;20048;-48
2022/11/27 03:01:22;;;;;;;0.88;0.77;;;;;;;14.70;63.05;99654.47;2083436;28;20045;-46
2022/11/27 03:02:29;;;;;;;0.75;0.60;;;;;;;14.69;63.20;99658.13;2082018;28;20056;-45
2022/11/27 03:03:34;;;;;;;0.60;0.57;;;;;;;14.69;63.13;99645.63;2077004;28;20555;-46
2022/11/27 03:04:43;;;;;;;0.82;0.60;;;;;;;14.70;63.02;99654.47;2079285;28;20182;-47
2022/11/27 03:05:48;;;;;;;0.50;0.40;;;;;;;14.71;63.00;99646.31;2070814;28;20060;-48
2022/11/27 03:06:55;;;;;;;0.55;0.52;;;;;;;14.70;63.02;99649.97;2080534;28;20091;-46
2022/11/27 03:08:02;;;;;;;0.93;0.70;;;;;;;14.68;62.93;99648.44;2081262;28;20536;-47
2022/11/27 03:09:08;;;;;;;1.13;0.70;;;;;;;14.66;63.10;99648.59;2080997;28;20566;-48
2022/11/27 03:10:18;;;;;;;0.52;0.32;;;;;;;14.66;63.26;99642.44;2079076;28;20507;-46
2022/11/27 03:11:20;;;;;;;0.75;0.65;;;;;;;14.64;63.35;99645.22;2068496;28;20698;-46
2022/11/27 03:12:20;;;;;;;0.50;0.40;;;;;;;14.66;63.27;99637.09;2082034;28;20052;-47
2022/11/27 03:13:22;;;;;;;;;;;;;;;14.53;63.47;99638.28;2080301;28;21162;-47
2022/11/27 03:14:23;;;;;;;;;;;;;;;14.46;63.79;99634.53;2080337;28;19932;-46
2022/11/27 03:15:35;;;;;;;0.63;0.43;;;;;;;14.52;63.81;99646.47;2081569;28;20020;-47
2022/11/27 03:16:43;;;;;;;0.77;0.70;;;;;;;14.57;63.71;99638.84;2082525;28;20056;-46
2022/11/27 03:17:54;;;;;;;0.70;0.60;;;;;;;14.59;63.36;99636.00;2081389;28;20056;-46
2022/11/27 03:19:01;;;;;;;1.00;0.68;;;;;;;14.62;63.44;99643.72;2082224;28;20041;-46
2022/11/27 03:20:08;;;;;;;0.88;0.80;;;;;;;14.63;63.13;99637.41;2082480;28;20179;-48
2022/11/27 03:21:29;;;;;;;0.68;0.60;;;;;;;14.63;63.36;99645.41;2080049;28;20501;-46
2022/11/27 03:22:31;;;;;;;0.95;0.40;;;;;;;14.61;63.46;99639.38;2080535;28;20052;-48
2022/11/27 03:23:32;;;;;;;0.73;0.70;;;;;;;14.63;63.17;99640.91;2083133;28;20044;-49
2022/11/27 03:24:34;;;;;;;;;;;;;;;14.50;63.43;99638.56;2078521;28;20049;-47
2022/11/27 03:25:35;;;;;;;0.98;0.57;;;;;;;14.56;63.31;99636.31;2080680;28;19925;-46
2022/11/27 03:26:37;;;;;;;;;;;;;;;14.48;63.58;99635.19;2078718;28;20055;-46
2022/11/27 03:27:42;;;;;;;0.68;0.35;;;;;;;14.55;63.58;99629.31;2078270;28;19928;-52
2022/11/27 03:28:46;;;;;;;0.82;0.50;;;;;;;14.58;63.43;99634.34;2080525;28;20037;-46
2022/11/27 03:29:50;;;;;;;0.88;0.70;;;;;;;14.62;63.39;99639.19;2083194;28;20049;-47
2022/11/27 03:30:54;;;;;;;0.82;0.75;;;;;;;14.64;63.29;99633.72;2081770;28;20068;-49
2022/11/27 03:31:56;;;;;;;0.50;0.40;;;;;;;14.65;63.13;99635.38;2083136;28;20049;-47
2022/11/27 03:32:58;;;;;;;0.70;0.70;;;;;;;14.63;63.36;99640.06;2081185;28;20465;-46
2022/11/27 03:34:00;;;;;;;1.58;1.05;;;;;;;14.65;63.13;99635.38;2082251;28;20057;-47
2022/11/27 03:35:05;;;;;;;0.70;0.50;;;;;;;14.66;63.06;99631.75;2082395;28;20052;-46
2022/11/27 03:36:12;;;;;;;0.63;0.63;;;;;;;14.65;63.20;99635.38;2080401;28;20057;-47
2022/11/27 03:37:14;;;;;;;0.80;0.80;;;;;;;14.65;63.19;99635.38;2082654;28;20676;-47
2022/11/27 03:38:15;;;;;;;1.00;0.80;;;;;;;14.65;63.15;99633.56;2078881;28;20049;-48
2022/11/27 03:39:16;;;;;;;;;;;;;;;14.51;63.43;99634.06;2077694;28;20071;-48
2022/11/27 03:40:17;;;;;;;;;;;;;;;14.43;63.65;99637.53;2078130;28;19924;-48
2022/11/27 03:41:24;;;;;;;0.70;0.63;;;;;;;14.50;63.59;99633.22;2079750;28;20303;-47
2022/11/27 03:42:30;;;;;;;0.75;0.60;;;;;;;14.57;63.54;99635.31;2073517;28;20041;-48
2022/11/27 03:43:37;;;;;;;0.65;0.60;;;;;;;14.60;63.35;99640.34;2076439;28;20053;-47
2022/11/27 03:44:45;;;;;;;0.90;0.50;;;;;;;14.61;63.05;99639.38;2074885;28;20041;-49
2022/11/27 03:45:58;;;;;;;0.70;0.68;;;;;;;14.61;63.22;99639.38;2074632;28;20167;-48
2022/11/27 03:47:08;;;;;;;0.52;0.52;;;;;;;14.59;63.24;99636.00;2077956;28;20061;-46
2022/11/27 03:48:22;;;;;;;0.68;0.68;;;;;;;14.58;63.01;99629.84;2076185;28;20432;-49
2022/11/27 03:49:32;;;;;;;0.73;0.70;;;;;;;14.62;63.10;99630.34;2076165;28;20045;-49
2022/11/27 03:50:45;;;;;;;0.40;0.40;;;;;;;14.58;63.45;99634.34;2077260;28;20045;-47
2022/11/27 03:51:52;;;;;;;0.60;0.60;;;;;;;14.57;63.48;99633.50;2078803;28;20049;-48
2022/11/27 03:53:06;;;;;;;0.98;0.70;;;;;;;14.58;63.26;99634.34;2075382;28;20185;-47
2022/11/27 03:54:19;;;;;;;1.42;0.90;;;;;;;14.56;63.25;99631.81;2079823;28;20505;-48
2022/11/27 03:55:29;;;;;;;0.32;0.28;;;;;;;14.60;63.18;99632.34;2082196;28;20737;-46
2022/11/27 03:56:37;;;;;;;0.57;0.52;;;;;;;14.58;63.10;99635.19;2081056;28;20052;-46
2022/11/27 03:57:53;;;;;;;0.60;0.57;;;;;;;14.57;63.17;99633.50;2081612;28;20071;-49
2022/11/27 03:58:58;;;;;;;0.73;0.73;;;;;;;14.57;63.31;99624.63;2082653;28;20060;-50
2022/11/27 04:00:03;;;;;;;0.90;0.60;;;;;;;14.58;63.02;99629.00;2081868;28;20985;-48
2022/11/27 04:01:10;;;;;;;0.63;0.60;;;;;;;14.58;63.24;99624.50;2082329;28;20049;-46
2022/11/27 04:02:13;;;;;;;0.60;0.52;;;;;;;14.59;63.24;99631.50;2077957;28;20052;-52
2022/11/27 04:03:22;;;;;;;0.80;0.50;;;;;;;14.59;63.27;99628.00;2072378;28;20052;-45
2022/11/27 04:04:24;;;;;;;0.68;0.60;;;;;;;14.58;63.20;99629.00;2081512;28;20560;-46
2022/11/27 04:05:25;;;;;;;0.47;0.40;;;;;;;14.59;63.08;99636.00;2075193;28;20679;-46
2022/11/27 04:06:27;;;;;;;;;;;;;;;14.48;63.50;99637.03;2076296;28;20061;-48
2022/11/27 04:07:27;;;;;;;1.90;0.52;;;;;;;14.51;63.35;99634.06;2082022;28;19932;-46
2022/11/27 04:08:29;;;;;;;;;;;;;;;14.41;63.75;99626.16;2079689;28;20053;-47
2022/11/27 04:09:30;;;;;;;0.80;0.60;;;;;;;14.47;63.69;99638.88;2080304;28;19932;-45
2022/11/27 04:10:31;;;;;;;;;;;;;;;14.38;63.61;99626.44;2074259;28;20432;-48
2022/11/27 04:11:32;;;;;;;1.23;0.68;;;;;;;14.44;63.76;99633.00;2077659;28;19920;-45
2022/11/27 04:12:34;;;;;;;;;;;;;;;14.38;63.89;99633.63;2081913;28;20664;-45
2022/11/27 04:13:36;;;;;;;1.08;0.98;;;;;;;14.45;63.68;99634.69;2080106;28;19932;-47
2022/11/27 04:14:37;;;;;;;0.77;0.57;;;;;;;14.50;63.44;99632.41;2082275;28;20511;-46
2022/11/27 04:15:39;;;;;;;;;;;;;;;14.40;63.69;99632.50;2082819;28;20040;-45
2022/11/27 04:16:41;;;;;;;0.80;0.28;;;;;;;14.47;63.50;99636.22;2081005;28;19931;-49
2022/11/27 04:17:43;;;;;;;0.47;0.40;;;;;;;14.50;63.18;99630.56;2082545;28;20037;-48
2022/11/27 04:18:44;;;;;;;1.13;0.70;;;;;;;14.53;63.22;99643.63;2081701;28;20776;-44
2022/11/27 04:19:46;;;;;;;0.40;0.40;;;;;;;14.54;63.40;99636.44;2081348;28;20574;-46
2022/11/27 04:20:46;;;;;;;0.68;0.50;;;;;;;14.56;63.28;99639.81;2081025;28;20056;-45
2022/11/27 04:21:48;;;;;;;;;;;;;;;14.44;63.37;99633.84;2079916;28;20041;-46
2022/11/27 04:22:49;;;;;;;0.93;0.80;;;;;;;14.47;63.52;99633.53;2078773;28;19921;-46
2022/11/27 04:23:50;;;;;;;;;;;;;;;14.38;63.59;99639.78;2080155;28;20496;-47
2022/11/27 04:24:51;;;;;;;0.30;0.30;;;;;;;14.44;63.59;99638.34;2079078;28;19936;-45
2022/11/27 04:25:53;;;;;;;;;;;;;;;14.36;63.82;99633.75;2077600;28;20322;-46
2022/11/27 04:26:54;;;;;;;0.63;0.63;;;;;;;14.43;63.65;99637.53;2075908;28;19921;-45
2022/11/27 04:27:55;;;;;;;;;;;;;;;14.34;63.77;99627.72;2082602;28;20051;-43
2022/11/27 04:28:56;;;;;;;;;;;;;;;14.32;63.79;99627.06;2081540;28;19929;-47
2022/11/27 04:29:58;;;;;;;0.67;0.50;;;;;;;14.38;63.70;99631.78;2082777;28;19921;-50
2022/11/27 04:30:59;;;;;;;0.65;0.50;;;;;;;14.43;63.58;99621.50;2081483;28;20053;-45
2022/11/27 04:32:02;;;;;;;;;;;;;;;14.36;63.81;99625.75;2082046;28;20103;-47
2022/11/27 04:33:03;;;;;;;0.70;0.70;;;;;;;14.41;63.49;99623.47;2081975;28;20565;-45
2022/11/27 04:34:04;;;;;;;;;;;;;;;14.34;64.01;99630.41;2081678;28;20156;-47
2022/11/27 04:35:05;;;;;;;;;;;;;;;14.30;64.06;99626.38;2083769;28;20501;-46
2022/11/27 04:36:07;;;;;;;0.65;0.55;;;;;;;14.38;63.86;99626.44;2082565;28;19921;-47
2022/11/27 04:37:08;;;;;;;0.45;0.30;;;;;;;14.44;63.49;99625.00;2076555;28;20712;-47
2022/11/27 04:38:10;;;;;;;;;;;;;;;14.36;63.83;99620.41;2082854;28;20041;-44
2022/11/27 04:39:12;;;;;;;0.73;0.68;;;;;;;14.41;63.72;99630.66;2076125;28;20288;-45
2022/11/27 04:40:14;;;;;;;0.77;0.70;;;;;;;14.44;63.40;99633.84;2079423;28;20088;-46
2022/11/27 04:41:15;;;;;;;0.68;0.60;;;;;;;14.46;63.39;99626.53;2079314;28;20075;-45
2022/11/27 04:42:16;;;;;;;;;;;;;;;14.40;63.54;99634.28;2072459;28;20072;-46
2022/11/27 04:43:18;;;;;;;0.70;0.50;;;;;;;14.44;63.51;99633.84;2076948;28;20587;-47
2022/11/27 04:44:21;;;;;;;0.73;0.70;;;;;;;14.46;63.39;99626.53;2073663;28;20148;-45
2022/11/27 04:45:22;;;;;;;0.50;0.50;;;;;;;14.48;63.33;99627.19;2082043;28;20504;-47
2022/11/27 04:46:23;;;;;;;;;;;;;;;14.39;63.61;99630.78;2078400;28;20072;-47
2022/11/27 04:47:26;;;;;;;0.68;0.40;;;;;;;14.44;63.51;99635.69;2079579;28;19924;-46
2022/11/27 04:48:27;;;;;;;0.57;0.57;;;;;;;14.46;63.32;99634.53;2079388;28;20633;-44
2022/11/27 04:49:28;;;;;;;1.38;0.70;;;;;;;14.47;63.46;99640.72;2071563;28;20053;-47
2022/11/27 04:50:30;;;;;;;;;;;;;;;14.37;63.77;99640.75;2083622;28;20045;-46
2022/11/27 04:51:31;;;;;;;0.50;0.50;;;;;;;14.43;63.61;99637.53;2081514;28;19935;-47
2022/11/27 04:52:33;;;;;;;;;;;;;;;14.34;63.86;99638.41;2075610;28;20053;-45
2022/11/27 04:53:35;;;;;;;0.65;0.50;;;;;;;14.40;63.58;99643.16;2083773;28;20475;-46
2022/11/27 04:54:35;;;;;;;0.70;0.70;;;;;;;14.43;63.39;99642.00;2083570;28;20552;-45
2022/11/27 04:55:37;;;;;;;;;;;;;;;14.32;63.92;99653.75;2082961;28;20049;-45
2022/11/27 04:56:38;;;;;;;0.45;0.45;;;;;;;14.38;63.59;99654.97;2082583;28;19920;-48
2022/11/27 04:57:39;;;;;;;;;;;;;;;14.32;63.77;99648.41;2082902;28;20692;-45
2022/11/27 04:58:40;;;;;;;0.60;0.45;;;;;;;14.37;63.67;99656.78;2083773;28;20462;-47
2022/11/27 04:59:42;;;;;;;;;;;;;;;14.29;63.88;99654.88;2083507;28;20045;-47
2022/11/27 05:00:42;;;;;;;1.05;0.70;;;;;;;14.35;63.86;99649.91;2076905;28;19952;-45
2022/11/27 05:01:44;;;;;;;;;;;;;;;14.29;63.99;99651.34;2084340;28;20480;-45
2022/11/27 05:02:46;;;;;;;0.45;0.45;;;;;;;14.37;63.74;99651.44;2083524;28;20455;-46
2022/11/27 05:03:48;;;;;;;0.63;0.57;;;;;;;14.42;63.35;99659.84;2079116;28;20052;-44
2022/11/27 05:04:49;;;;;;;0.60;0.45;;;;;;;14.45;63.27;99651.53;2078458;28;20060;-46
2022/11/27 05:05:54;;;;;;;;;;;;;;;14.34;63.59;99657.09;2082242;28;20568;-45
2022/11/27 05:06:56;;;;;;;1.08;1.05;;;;;;;14.37;63.60;99659.44;2081455;28;19931;-45
2022/11/27 05:07:58;;;;;;;1.08;0.90;;;;;;;14.43;63.48;99663.34;2079104;28;20060;-46